Time;durP1;ratioP1;P1;durP2;ratioP2;P2;SDS_P1;SDS_P2;PMS_P1;PMS_P2;Temp;Humidity;BMP_temperature;BMP_pressure;BME280_temperature;BME280_humidity;BME280_pressure;Samples;Min_cycle;Max_cycle;Signal;HPM_P1;HPM_P2
2022/03/07 00:01:40;;;;;;;13.52;8.98;;;;;;;-0.53;57.41;97866.06;5030191;28;20037;-67
2022/03/07 00:04:07;;;;;;;12.63;7.97;;;;;;;-0.50;57.09;97866.72;5038050;28;20500;-65
2022/03/07 00:06:34;;;;;;;14.55;8.18;;;;;;;-0.48;57.23;97870.06;5025595;28;20060;-66
2022/03/07 00:09:00;;;;;;;15.07;8.90;;;;;;;-0.53;57.50;97870.53;5009194;28;20045;-66
2022/03/07 00:11:28;;;;;;;12.63;7.47;;;;;;;-0.50;57.75;97869.38;5018501;28;20422;-66
2022/03/07 00:13:55;;;;;;;16.55;12.15;;;;;;;-0.60;57.92;97872.19;5029344;28;20135;-66
2022/03/07 00:16:21;;;;;;;14.68;8.35;;;;;;;-0.52;57.97;97869.53;5023931;28;20033;-67
2022/03/07 00:18:48;;;;;;;17.90;11.07;;;;;;;-0.56;58.05;97863.72;5014366;28;20042;-66
2022/03/07 00:21:14;;;;;;;14.60;8.70;;;;;;;-0.63;58.38;97867.25;5029025;28;20033;-65
2022/03/07 00:23:41;;;;;;;25.33;14.18;;;;;;;-0.73;58.55;97865.59;5027623;28;20568;-67
2022/03/07 00:26:08;;;;;;;17.13;9.95;;;;;;;-0.76;58.68;97867.72;5027173;28;20064;-66
2022/03/07 00:28:34;;;;;;;22.73;11.75;;;;;;;-0.82;59.26;97874.53;5028392;28;20041;-65
2022/03/07 00:31:05;;;;;;;31.58;15.48;;;;;;;-0.95;59.58;97870.56;5027010;28;20052;-65
2022/03/07 00:33:32;;;;;;;15.18;8.25;;;;;;;-0.89;59.31;97871.72;5033479;28;20119;-67
2022/03/07 00:35:59;;;;;;;13.02;8.57;;;;;;;-0.87;59.37;97871.56;5015955;28;20095;-64
2022/03/07 00:38:26;;;;;;;17.73;10.85;;;;;;;-0.97;59.60;97880.53;5026951;28;20037;-65
2022/03/07 00:40:53;;;;;;;17.80;9.98;;;;;;;-1.05;60.24;97881.38;5015242;28;20074;-65
2022/03/07 00:43:21;;;;;;;16.92;10.57;;;;;;;-1.07;59.79;97874.56;5026534;28;20041;-66
2022/03/07 00:45:48;;;;;;;17.20;9.85;;;;;;;-1.08;60.48;97876.38;5028039;28;20667;-66
2022/03/07 00:48:16;;;;;;;17.25;8.90;;;;;;;-1.03;60.35;97872.38;5024206;28;20034;-65
2022/03/07 00:50:47;;;;;;;13.18;8.50;;;;;;;-1.02;59.78;97871.38;5020879;28;20045;-66
2022/03/07 00:53:16;;;;;;;14.15;8.32;;;;;;;-0.96;60.32;97876.06;5023744;28;20049;-65
2022/03/07 00:55:44;;;;;;;15.13;8.30;;;;;;;-1.07;60.15;97877.22;5027759;28;20045;-65
2022/03/07 00:58:12;;;;;;;16.13;8.40;;;;;;;-1.13;60.17;97870.72;5024954;28;20536;-66
2022/03/07 01:00:40;;;;;;;14.05;8.57;;;;;;;-1.14;60.63;97881.50;5040953;28;20155;-66
2022/03/07 01:03:09;;;;;;;16.10;9.43;;;;;;;-1.22;60.34;97867.22;5030540;28;20038;-66
2022/03/07 01:05:36;;;;;;;14.63;9.43;;;;;;;-1.18;60.39;97879.19;5024869;28;20049;-66
2022/03/07 01:08:04;;;;;;;13.48;8.27;;;;;;;-1.07;60.32;97879.88;5028114;28;20049;-66
2022/03/07 01:10:30;;;;;;;15.10;8.93;;;;;;;-1.18;60.67;97876.53;5025338;28;20041;-66
2022/03/07 01:12:57;;;;;;;13.98;8.57;;;;;;;-1.22;60.57;97880.50;5027374;28;20045;-66
2022/03/07 01:15:25;;;;;;;12.75;7.97;;;;;;;-1.14;60.29;97878.84;5025270;28;20599;-66
2022/03/07 01:17:54;;;;;;;11.57;7.57;;;;;;;-1.09;60.13;97879.19;5026345;28;20056;-65
2022/03/07 01:20:21;;;;;;;14.05;8.13;;;;;;;-1.13;60.38;97877.84;5027539;28;20049;-65
2022/03/07 01:22:48;;;;;;;13.23;8.50;;;;;;;-1.16;60.15;97878.19;5024949;28;20033;-64
2022/03/07 01:25:14;;;;;;;14.30;7.60;;;;;;;-1.27;60.67;97874.84;5027107;28;20564;-66
2022/03/07 01:27:41;;;;;;;14.32;7.78;;;;;;;-1.32;59.53;97871.88;5026651;28;20048;-66
2022/03/07 01:30:08;;;;;;;11.32;7.30;;;;;;;-1.20;59.40;97865.25;5026017;28;20057;-64
2022/03/07 01:32:35;;;;;;;11.68;7.60;;;;;;;-1.24;59.65;97871.88;5034688;28;20076;-64
2022/03/07 01:35:03;;;;;;;12.77;7.28;;;;;;;-1.32;59.77;97869.19;5011745;28;20041;-66
2022/03/07 01:37:32;;;;;;;11.00;6.68;;;;;;;-1.32;59.49;97871.88;5026209;28;20034;-66
2022/03/07 01:39:58;;;;;;;13.85;7.63;;;;;;;-1.49;59.93;97868.31;5027324;28;20044;-65
2022/03/07 01:42:25;;;;;;;14.25;7.65;;;;;;;-1.40;60.15;97866.53;5027084;28;20048;-65
2022/03/07 01:44:53;;;;;;;12.75;7.85;;;;;;;-1.39;59.79;97865.53;5018475;28;20037;-65
2022/03/07 01:47:20;;;;;;;12.35;8.38;;;;;;;-1.47;60.12;97861.84;5024477;28;20057;-66
2022/03/07 01:49:46;;;;;;;11.93;7.40;;;;;;;-1.43;59.86;97859.72;5009312;28;20053;-66
2022/03/07 01:52:18;;;;;;;13.18;7.10;;;;;;;-1.51;60.19;97862.34;5025810;28;20064;-66
2022/03/07 01:54:46;;;;;;;11.43;7.30;;;;;;;-1.50;59.89;97853.38;5040528;28;20126;-66
2022/03/07 01:57:14;;;;;;;11.18;7.82;;;;;;;-1.55;59.38;97856.50;5025330;28;20053;-66
2022/03/07 01:59:40;;;;;;;12.45;6.57;;;;;;;-1.50;58.55;97850.72;5025225;28;20076;-66
2022/03/07 02:02:08;;;;;;;11.02;7.13;;;;;;;-1.58;58.59;97841.75;5040569;28;20044;-65
2022/03/07 02:04:39;;;;;;;10.10;6.78;;;;;;;-1.68;58.98;97848.19;5028092;28;20110;-65
2022/03/07 02:07:08;;;;;;;12.57;6.65;;;;;;;-1.73;59.06;97848.69;5005540;28;20053;-64
2022/03/07 02:09:35;;;;;;;9.38;6.90;;;;;;;-1.74;58.47;97850.50;5023259;28;20041;-67
2022/03/07 02:12:03;;;;;;;13.23;6.97;;;;;;;-1.75;58.63;97848.84;5026915;28;20077;-64
2022/03/07 02:14:30;;;;;;;12.05;6.43;;;;;;;-1.80;58.67;97840.53;5014706;28;20051;-66
2022/03/07 02:16:58;;;;;;;10.65;6.95;;;;;;;-1.85;58.48;97840.16;4997840;28;20049;-64
2022/03/07 02:19:24;;;;;;;12.63;6.72;;;;;;;-1.90;58.42;97838.00;5022770;28;20041;-65
2022/03/07 02:21:58;;;;;;;10.80;6.70;;;;;;;-2.02;58.86;97829.53;5022732;28;20563;-66
2022/03/07 02:24:30;;;;;;;9.05;6.43;;;;;;;-2.05;59.27;97831.63;5022927;28;20048;-65
2022/03/07 02:27:07;;;;;;;10.82;6.50;;;;;;;-2.19;59.36;97830.41;5024458;28;20042;-66
2022/03/07 02:29:35;;;;;;;9.85;6.18;;;;;;;-2.27;59.34;97825.91;5012418;28;20095;-64
2022/03/07 02:32:06;;;;;;;12.88;7.25;;;;;;;-2.31;59.15;97827.22;5019064;28;20076;-64
2022/03/07 02:34:38;;;;;;;10.43;6.30;;;;;;;-2.38;59.86;97825.19;5020847;28;20083;-64
2022/03/07 02:37:06;;;;;;;13.38;6.57;;;;;;;-2.40;60.13;97826.34;5024397;28;20564;-64
2022/03/07 02:39:41;;;;;;;14.10;7.57;;;;;;;-2.46;60.52;97824.31;5010550;28;20057;-64
2022/03/07 02:42:29;;;;;;;14.25;7.97;;;;;;;-2.56;60.29;97832.38;5024345;28;20045;-64
2022/03/07 02:44:56;;;;;;;12.85;6.80;;;;;;;-2.75;61.28;97831.59;5024941;28;20038;-64
2022/03/07 02:47:23;;;;;;;10.25;6.10;;;;;;;-2.74;61.38;97833.25;5018612;28;20103;-65
2022/03/07 02:49:50;;;;;;;12.02;6.88;;;;;;;-2.86;62.24;97830.03;5024319;28;20037;-65
2022/03/07 02:52:16;;;;;;;12.02;7.13;;;;;;;-2.95;62.78;97829.13;5016954;28;20034;-65
2022/03/07 02:54:44;;;;;;;10.52;6.55;;;;;;;-2.89;62.13;97828.53;5008538;28;20045;-66
2022/03/07 02:57:10;;;;;;;8.77;5.90;;;;;;;-2.88;62.07;97829.34;5018472;28;20065;-66
2022/03/07 02:59:37;;;;;;;11.02;7.15;;;;;;;-2.90;62.00;97828.69;5025677;28;20106;-64
2022/03/07 03:02:03;;;;;;;12.40;6.28;;;;;;;-2.98;62.11;97836.56;5034604;28;20046;-64
2022/03/07 03:04:30;;;;;;;11.18;6.03;;;;;;;-3.04;61.86;97830.06;5024764;28;20041;-67
2022/03/07 03:06:56;;;;;;;10.63;6.43;;;;;;;-3.07;61.86;97833.00;5024705;28;20045;-66
2022/03/07 03:09:23;;;;;;;11.38;6.25;;;;;;;-3.07;61.60;97833.84;5015293;28;20465;-65
2022/03/07 03:11:49;;;;;;;12.10;6.38;;;;;;;-3.02;61.04;97828.91;5008481;28;20148;-64
2022/03/07 03:14:16;;;;;;;11.95;6.90;;;;;;;-3.04;61.39;97830.06;5024700;28;20056;-65
2022/03/07 03:16:43;;;;;;;10.23;6.05;;;;;;;-3.03;61.24;97832.56;5024230;28;20073;-65
2022/03/07 03:19:10;;;;;;;10.45;6.05;;;;;;;-3.10;61.33;97835.97;5015539;28;20038;-65
2022/03/07 03:21:37;;;;;;;12.63;6.65;;;;;;;-3.36;62.09;97839.41;5006253;28;20096;-66
2022/03/07 03:24:04;;;;;;;10.10;6.43;;;;;;;-3.76;63.79;97852.06;5016754;28;20045;-64
2022/03/07 03:26:31;;;;;;;10.30;6.07;;;;;;;-3.99;65.08;97849.81;5024257;28;20476;-66
2022/03/07 03:28:58;;;;;;;8.98;5.55;;;;;;;-4.20;65.47;97845.59;5023207;28;20038;-65
2022/03/07 03:31:24;;;;;;;13.40;7.25;;;;;;;-4.52;67.05;97850.31;5027451;28;20698;-66
2022/03/07 03:33:53;;;;;;;14.18;7.18;;;;;;;-4.60;67.31;97848.34;5008688;28;20046;-67
2022/03/07 03:36:19;;;;;;;12.07;6.53;;;;;;;-4.68;67.18;97850.91;5011343;28;20049;-66
2022/03/07 03:38:46;;;;;;;13.40;7.47;;;;;;;-4.84;67.85;97852.31;5021205;28;20041;-65
2022/03/07 03:41:12;;;;;;;9.73;6.00;;;;;;;-5.10;68.40;97852.91;5011286;28;20687;-65
2022/03/07 03:43:39;;;;;;;14.57;8.48;;;;;;;-5.03;68.86;97853.19;5028961;28;20049;-65
2022/03/07 03:46:06;;;;;;;11.93;6.72;;;;;;;-5.17;68.82;97858.91;5029209;28;20524;-65
2022/03/07 03:48:32;;;;;;;12.93;7.57;;;;;;;-5.22;69.03;97859.31;5016806;28;20048;-65
2022/03/07 03:51:00;;;;;;;9.88;6.45;;;;;;;-5.35;69.68;97855.13;5028820;28;20046;-65
2022/03/07 03:53:26;;;;;;;14.98;7.95;;;;;;;-5.36;70.75;97849.97;5009983;28;20050;-64
2022/03/07 03:55:53;;;;;;;10.73;5.78;;;;;;;-5.54;70.01;97855.94;5020829;28;20041;-63
2022/03/07 03:58:20;;;;;;;16.88;7.78;;;;;;;-5.61;71.26;97858.31;5027749;28;20115;-64
2022/03/07 04:00:46;;;;;;;13.65;7.25;;;;;;;-5.75;71.09;97864.00;5044520;28;20048;-65
2022/03/07 04:03:13;;;;;;;11.35;7.28;;;;;;;-5.80;71.42;97863.53;5030518;28;20057;-64
2022/03/07 04:05:40;;;;;;;14.10;7.50;;;;;;;-5.68;71.61;97859.81;5028308;28;20128;-64
2022/03/07 04:08:06;;;;;;;14.32;7.70;;;;;;;-5.67;71.41;97868.56;5015417;28;20046;-65
2022/03/07 04:10:33;;;;;;;10.23;6.70;;;;;;;-5.77;72.08;97864.13;5009305;28;20041;-65
2022/03/07 04:12:59;;;;;;;11.93;5.95;;;;;;;-5.85;72.14;97860.47;5022544;28;20479;-65
2022/03/07 04:15:26;;;;;;;13.02;6.65;;;;;;;-6.05;71.58;97863.09;5015163;28;20045;-65
2022/03/07 04:17:54;;;;;;;11.05;6.13;;;;;;;-6.17;73.45;97860.56;5019731;28;20042;-65
2022/03/07 04:20:20;;;;;;;12.27;6.40;;;;;;;-6.19;72.84;97862.47;5022819;28;20406;-66
2022/03/07 04:22:47;;;;;;;14.50;7.22;;;;;;;-6.19;72.90;97859.84;5008746;28;20053;-65
2022/03/07 04:25:13;;;;;;;13.00;7.07;;;;;;;-6.23;72.77;97858.44;5009090;28;20050;-65
2022/03/07 04:27:40;;;;;;;11.07;6.45;;;;;;;-6.27;72.64;97862.31;5016876;28;20492;-67
2022/03/07 04:30:08;;;;;;;14.77;7.00;;;;;;;-6.37;73.61;97862.28;5026704;28;20041;-66
2022/03/07 04:32:36;;;;;;;13.85;7.85;;;;;;;-6.43;73.28;97858.38;5024375;28;20419;-65
2022/03/07 04:35:05;;;;;;;13.18;7.00;;;;;;;-6.43;73.69;97866.28;5014583;28;20045;-65
2022/03/07 04:37:33;;;;;;;11.85;6.68;;;;;;;-6.44;73.40;97866.41;5028534;28;20048;-66
2022/03/07 04:40:02;;;;;;;12.77;7.05;;;;;;;-6.53;73.99;97866.22;5011000;28;20034;-66
2022/03/07 04:42:28;;;;;;;10.30;6.32;;;;;;;-6.56;74.02;97874.38;5019691;28;20528;-65
2022/03/07 04:44:55;;;;;;;10.27;6.65;;;;;;;-6.55;74.31;97877.88;5025959;28;20053;-65
2022/03/07 04:47:22;;;;;;;14.63;7.30;;;;;;;-6.53;74.00;97883.81;5026373;28;20052;-65
2022/03/07 04:49:48;;;;;;;12.70;6.63;;;;;;;-6.55;74.57;97880.50;5026334;28;20092;-66
2022/03/07 04:52:15;;;;;;;12.82;7.15;;;;;;;-6.44;73.62;97880.44;5027603;28;20484;-66
2022/03/07 04:54:41;;;;;;;13.38;7.07;;;;;;;-6.05;74.58;97874.47;5022556;28;20799;-64
2022/03/07 04:57:08;;;;;;;15.85;6.80;;;;;;;-5.78;72.90;97877.44;5025504;28;20041;-66
2022/03/07 04:59:34;;;;;;;12.82;6.97;;;;;;;-5.70;72.16;97882.03;5020978;28;20034;-66
2022/03/07 05:02:01;;;;;;;11.32;6.43;;;;;;;-5.33;72.11;97878.75;5027169;28;20045;-65
2022/03/07 05:04:28;;;;;;;11.98;6.53;;;;;;;-5.27;71.02;97878.19;5020835;28;20125;-66
2022/03/07 05:06:56;;;;;;;10.90;6.07;;;;;;;-5.49;69.62;97877.47;5027372;28;20050;-65
2022/03/07 05:09:22;;;;;;;11.52;7.10;;;;;;;-5.39;72.94;97881.94;5026658;28;20038;-64
2022/03/07 05:11:49;;;;;;;15.85;7.95;;;;;;;-5.07;71.75;97880.00;5026193;28;20045;-66
2022/03/07 05:14:17;;;;;;;13.63;7.05;;;;;;;-4.87;71.29;97881.66;5008150;28;20103;-64
2022/03/07 05:16:44;;;;;;;12.52;7.25;;;;;;;-4.71;70.92;97888.19;5025533;28;20069;-66
2022/03/07 05:19:11;;;;;;;13.88;7.03;;;;;;;-4.68;71.04;97887.91;5025511;28;20114;-64
2022/03/07 05:21:38;;;;;;;14.52;8.45;;;;;;;-4.57;70.67;97889.56;5024363;28;20041;-65
2022/03/07 05:24:05;;;;;;;11.32;7.13;;;;;;;-4.50;71.11;97889.81;5024378;28;20046;-65
2022/03/07 05:26:32;;;;;;;10.30;6.60;;;;;;;-4.48;71.20;97901.06;5025607;28;20501;-65
2022/03/07 05:28:59;;;;;;;13.73;8.02;;;;;;;-4.44;70.65;97897.16;5023851;28;20033;-66
2022/03/07 05:31:25;;;;;;;13.02;6.82;;;;;;;-4.44;69.85;97902.44;5027548;28;20053;-65
2022/03/07 05:33:52;;;;;;;16.70;10.05;;;;;;;-4.50;70.67;97897.75;5038477;28;20575;-66
2022/03/07 05:36:18;;;;;;;12.10;7.53;;;;;;;-4.46;71.15;97904.41;5006984;28;20108;-65
2022/03/07 05:38:45;;;;;;;13.55;7.60;;;;;;;-4.46;70.66;97904.41;5008550;28;20057;-67
2022/03/07 05:41:11;;;;;;;16.10;9.07;;;;;;;-4.53;69.81;97901.50;5025256;28;20411;-67
2022/03/07 05:43:38;;;;;;;16.83;9.75;;;;;;;-5.10;70.55;97903.09;5026186;28;20045;-65
2022/03/07 05:46:09;;;;;;;14.43;8.45;;;;;;;-5.32;71.77;97909.44;5014896;28;20046;-66
2022/03/07 05:48:37;;;;;;;14.23;7.22;;;;;;;-5.54;72.85;97899.97;5026288;28;20132;-64
2022/03/07 05:51:03;;;;;;;14.13;7.15;;;;;;;-5.75;73.69;97900.91;5025309;28;20068;-66
2022/03/07 05:53:30;;;;;;;13.95;7.53;;;;;;;-5.95;74.36;97905.28;5023753;28;20053;-64
2022/03/07 05:55:56;;;;;;;13.55;7.88;;;;;;;-6.05;75.49;97903.47;5024242;28;20044;-64
2022/03/07 05:58:23;;;;;;;13.55;7.70;;;;;;;-6.08;75.13;97902.91;5023591;28;20049;-64
2022/03/07 06:00:49;;;;;;;12.75;7.22;;;;;;;-6.18;75.36;97916.91;5014678;28;20041;-67
2022/03/07 06:03:16;;;;;;;16.40;7.85;;;;;;;-6.27;75.87;97918.50;5023780;28;20107;-63
2022/03/07 06:05:43;;;;;;;12.48;7.03;;;;;;;-6.34;75.94;97912.06;5020709;28;20045;-66
2022/03/07 06:08:15;;;;;;;15.32;8.13;;;;;;;-6.41;76.65;97922.31;5022656;28;20096;-64
2022/03/07 06:10:41;;;;;;;13.38;7.45;;;;;;;-6.37;77.06;97930.81;5022043;28;20041;-67
2022/03/07 06:13:08;;;;;;;14.30;7.18;;;;;;;-6.28;77.18;97929.19;5020181;28;20537;-65
2022/03/07 06:15:35;;;;;;;12.60;6.82;;;;;;;-6.31;76.41;97932.06;5030042;28;20641;-65
2022/03/07 06:18:02;;;;;;;14.30;7.03;;;;;;;-6.38;76.88;97923.84;5026360;28;20852;-66
2022/03/07 06:20:28;;;;;;;14.68;6.90;;;;;;;-6.41;76.80;97921.50;5023828;28;20114;-64
2022/03/07 06:22:55;;;;;;;12.48;7.43;;;;;;;-6.42;76.81;97918.00;5007883;28;20038;-66
2022/03/07 06:25:22;;;;;;;13.05;7.03;;;;;;;-6.47;77.54;97917.56;5020434;28;20077;-66
2022/03/07 06:27:49;;;;;;;12.35;5.90;;;;;;;-6.40;77.21;97917.88;5021756;28;20115;-65
2022/03/07 06:30:16;;;;;;;13.80;7.45;;;;;;;-6.41;77.46;97922.31;5021804;28;20100;-64
2022/03/07 06:32:42;;;;;;;12.63;7.22;;;;;;;-6.38;77.14;97917.75;5026500;28;20056;-65
2022/03/07 06:35:13;;;;;;;12.55;7.13;;;;;;;-6.30;76.80;97924.03;5022997;28;20455;-67
2022/03/07 06:37:46;;;;;;;11.15;7.00;;;;;;;-6.29;77.14;97919.59;5023358;28;20045;-66
2022/03/07 06:40:13;;;;;;;13.52;6.80;;;;;;;-6.30;77.14;97916.13;5021037;28;20134;-67
2022/03/07 06:42:39;;;;;;;23.77;11.13;;;;;;;-6.30;77.12;97920.56;5022735;28;20052;-65
2022/03/07 06:45:07;;;;;;;23.23;10.48;;;;;;;-6.27;77.13;97922.94;5022100;28;20042;-66
2022/03/07 06:47:34;;;;;;;13.68;7.47;;;;;;;-6.18;77.77;97930.06;5021005;28;20121;-66
2022/03/07 06:50:01;;;;;;;12.65;6.85;;;;;;;-6.10;76.86;97929.41;5035746;28;20060;-66
2022/03/07 06:52:27;;;;;;;16.98;8.00;;;;;;;-6.00;76.67;97929.44;5004437;28;20602;-64
2022/03/07 06:54:54;;;;;;;10.75;6.32;;;;;;;-5.80;77.30;97932.13;5009800;28;20037;-64
2022/03/07 06:57:21;;;;;;;13.25;6.80;;;;;;;-5.67;76.19;97931.91;5025900;28;20825;-65
2022/03/07 06:59:49;;;;;;;16.80;7.95;;;;;;;-5.57;76.26;97930.09;5011959;28;20042;-63
2022/03/07 07:02:15;;;;;;;12.68;6.25;;;;;;;-5.42;75.75;97935.00;5025374;28;20049;-66
2022/03/07 07:04:43;;;;;;;12.40;7.05;;;;;;;-5.32;75.32;97927.94;5019977;28;20037;-66
2022/03/07 07:07:09;;;;;;;13.52;7.28;;;;;;;-5.20;75.04;97931.28;5015612;28;20051;-67
2022/03/07 07:09:36;;;;;;;11.35;7.10;;;;;;;-4.78;73.71;97935.47;5022173;28;20046;-65
2022/03/07 07:12:03;;;;;;;14.32;8.40;;;;;;;-4.59;73.21;97931.13;5013933;28;20096;-67
2022/03/07 07:14:30;;;;;;;18.52;7.43;;;;;;;-4.25;71.63;97935.09;5020853;28;20148;-66
2022/03/07 07:16:56;;;;;;;15.00;7.18;;;;;;;-4.07;70.87;97936.03;5008039;28;20119;-65
2022/03/07 07:19:23;;;;;;;12.68;7.32;;;;;;;-3.85;69.88;97938.44;5004312;28;20092;-65
2022/03/07 07:21:50;;;;;;;11.43;6.10;;;;;;;-3.69;69.41;97941.31;5018927;28;20041;-64
2022/03/07 07:24:16;;;;;;;9.77;5.47;;;;;;;-3.54;68.16;97949.59;5023914;28;20049;-66
2022/03/07 07:26:43;;;;;;;10.10;5.47;;;;;;;-3.34;67.70;97953.94;5025658;28;20732;-65
2022/03/07 07:29:09;;;;;;;9.55;5.55;;;;;;;-3.18;67.25;97938.22;5023048;28;20124;-66
2022/03/07 07:31:36;;;;;;;8.25;5.43;;;;;;;-3.09;66.63;97944.47;5024427;28;20048;-66
2022/03/07 07:34:02;;;;;;;10.63;5.13;;;;;;;-2.97;65.65;97950.38;5009800;28;20563;-65
2022/03/07 07:36:29;;;;;;;9.00;5.35;;;;;;;-2.92;65.25;97957.84;5010344;28;20050;-66
2022/03/07 07:38:55;;;;;;;9.82;5.13;;;;;;;-2.92;65.13;97958.69;5004174;28;20103;-67
2022/03/07 07:41:22;;;;;;;8.73;5.25;;;;;;;-2.83;64.13;97958.75;5030331;28;20049;-66
2022/03/07 07:43:51;;;;;;;10.63;6.22;;;;;;;-2.87;65.08;97956.41;5023577;28;20115;-66
2022/03/07 07:46:19;;;;;;;9.48;5.78;;;;;;;-2.73;64.50;97958.69;5018861;28;20092;-66
2022/03/07 07:48:45;;;;;;;11.70;5.18;;;;;;;-2.73;64.18;97956.03;5023569;28;20099;-66
2022/03/07 07:51:12;;;;;;;20.75;11.25;;;;;;;-2.65;64.50;97956.94;5008621;28;20100;-64
2022/03/07 07:53:38;;;;;;;15.50;8.20;;;;;;;-2.60;64.07;97956.47;5003465;28;20046;-64
2022/03/07 07:56:05;;;;;;;14.02;5.82;;;;;;;-2.55;63.75;97958.69;5020423;28;20041;-66
2022/03/07 07:58:31;;;;;;;10.23;6.03;;;;;;;-2.49;63.48;97963.38;5043089;28;20056;-66
2022/03/07 08:00:58;;;;;;;11.00;6.15;;;;;;;-2.57;63.69;97964.13;5024682;28;20045;-67
2022/03/07 08:03:25;;;;;;;10.82;5.38;;;;;;;-2.52;63.47;97963.66;5035880;28;20629;-65
2022/03/07 08:05:51;;;;;;;9.73;6.13;;;;;;;-2.59;63.26;97968.75;5022012;28;20120;-66
2022/03/07 08:08:18;;;;;;;14.48;7.40;;;;;;;-2.52;63.17;97976.91;5015920;28;20050;-66
2022/03/07 08:10:45;;;;;;;8.68;4.85;;;;;;;-2.34;62.61;97968.94;5016862;28;20045;-65
2022/03/07 08:13:11;;;;;;;10.15;5.50;;;;;;;-2.27;62.23;97980.63;5009361;28;20057;-67
2022/03/07 08:15:40;;;;;;;10.38;6.18;;;;;;;-2.26;61.73;97974.31;5006216;28;20707;-66
2022/03/07 08:18:07;;;;;;;10.52;6.05;;;;;;;-2.27;61.76;97980.63;5003196;28;20073;-66
2022/03/07 08:20:34;;;;;;;11.70;5.47;;;;;;;-2.23;61.32;97976.66;5008249;28;20046;-66
2022/03/07 08:23:01;;;;;;;10.23;6.28;;;;;;;-2.14;61.04;97979.38;5012862;28;20097;-65
2022/03/07 08:25:28;;;;;;;10.88;6.78;;;;;;;-2.05;60.83;97991.72;5025081;28;20052;-66
2022/03/07 08:27:54;;;;;;;13.10;7.60;;;;;;;-2.11;59.95;97993.16;5027089;28;20051;-65
2022/03/07 08:30:23;;;;;;;10.13;5.78;;;;;;;-2.12;60.47;97993.31;5025546;28;20064;-67
2022/03/07 08:32:51;;;;;;;13.23;6.47;;;;;;;-1.97;60.29;97986.47;5031341;28;20056;-65
2022/03/07 08:35:17;;;;;;;10.75;6.90;;;;;;;-1.91;59.39;97987.66;5018003;28;20078;-67
2022/03/07 08:37:46;;;;;;;12.10;6.28;;;;;;;-1.86;59.49;97988.00;5032999;28;20053;-64
2022/03/07 08:40:16;;;;;;;13.25;7.20;;;;;;;-1.74;59.74;97982.41;5032202;28;20038;-64
2022/03/07 08:42:44;;;;;;;14.98;7.68;;;;;;;-1.68;58.43;97988.91;5018162;28;20050;-65
2022/03/07 08:45:17;;;;;;;12.85;6.75;;;;;;;-1.66;58.18;97985.13;5018496;28;20054;-65
2022/03/07 08:47:43;;;;;;;12.13;7.55;;;;;;;-1.54;57.92;97975.06;5022081;28;20351;-66
2022/03/07 08:50:11;;;;;;;11.75;7.22;;;;;;;-1.44;56.64;97989.03;5026079;28;20049;-65
2022/03/07 08:52:39;;;;;;;15.90;8.77;;;;;;;-1.40;56.65;97989.53;5025793;28;20045;-64
2022/03/07 08:55:06;;;;;;;14.55;9.57;;;;;;;-1.22;56.12;97994.75;5014866;28;20049;-66
2022/03/07 08:57:33;;;;;;;13.57;7.03;;;;;;;-1.01;55.56;97990.84;5025994;28;20116;-66
2022/03/07 09:00:00;;;;;;;12.32;6.88;;;;;;;-0.79;55.01;97988.56;5032592;28;20049;-65
2022/03/07 09:02:26;;;;;;;12.63;8.43;;;;;;;-0.70;54.35;97990.22;5026606;28;20053;-66
2022/03/07 09:04:53;;;;;;;12.75;7.22;;;;;;;-0.71;53.61;97988.56;5036329;28;20058;-66
2022/03/07 09:07:20;;;;;;;12.45;7.72;;;;;;;-0.46;53.14;97988.59;5021477;28;20052;-65
2022/03/07 09:09:46;;;;;;;12.90;7.60;;;;;;;-0.11;52.51;97996.41;5025419;28;20049;-66
2022/03/07 09:12:13;;;;;;;14.98;8.10;;;;;;;-0.14;50.20;98002.88;5021453;28;20048;-66
2022/03/07 09:14:39;;;;;;;11.93;7.60;;;;;;;-0.24;50.63;97996.06;5021955;28;20046;-68
2022/03/07 09:17:06;;;;;;;10.88;7.68;;;;;;;0.06;50.20;98001.72;5015891;28;20053;-65
2022/03/07 09:19:32;;;;;;;12.05;7.55;;;;;;;0.19;48.00;98002.00;5008781;28;20054;-64
2022/03/07 09:21:59;;;;;;;11.65;7.15;;;;;;;0.05;47.48;98002.72;5032012;28;20043;-62
2022/03/07 09:24:26;;;;;;;12.10;7.10;;;;;;;0.07;47.94;98006.06;5043650;28;20045;-66
2022/03/07 09:26:52;;;;;;;12.10;7.80;;;;;;;-0.04;49.23;97999.25;5023600;28;20041;-63
2022/03/07 09:29:19;;;;;;;15.10;7.80;;;;;;;-0.19;49.95;98002.56;5025854;28;20052;-63
2022/03/07 09:31:45;;;;;;;14.93;7.85;;;;;;;-0.20;50.08;98006.22;5030910;28;20037;-63
2022/03/07 09:34:14;;;;;;;10.77;7.28;;;;;;;-0.36;50.46;98014.22;5021470;28;20096;-64
2022/03/07 09:36:41;;;;;;;17.30;8.45;;;;;;;-0.31;50.33;98010.06;5004966;28;20090;-65
2022/03/07 09:39:07;;;;;;;15.40;8.10;;;;;;;0.10;49.30;98000.38;5037398;28;20041;-64
2022/03/07 09:41:34;;;;;;;13.93;8.52;;;;;;;0.13;49.44;98005.38;5025808;28;20038;-64
2022/03/07 09:44:01;;;;;;;14.63;7.82;;;;;;;0.29;49.70;98003.69;5020269;28;20050;-63
2022/03/07 09:46:27;;;;;;;12.75;7.45;;;;;;;0.32;49.53;98008.66;5014556;28;20056;-64
2022/03/07 09:48:54;;;;;;;15.10;8.45;;;;;;;0.24;50.28;97997.03;5012820;28;20049;-66
2022/03/07 09:51:21;;;;;;;12.40;7.93;;;;;;;0.30;50.22;97998.19;5022770;28;20056;-64
2022/03/07 09:53:48;;;;;;;11.98;7.07;;;;;;;0.45;49.81;97997.47;5031126;28;20049;-64
2022/03/07 09:56:15;;;;;;;14.35;7.57;;;;;;;0.41;50.56;98004.16;5017914;28;20037;-66
2022/03/07 09:58:41;;;;;;;13.90;7.63;;;;;;;0.28;49.86;98008.16;5023769;28;20061;-64
2022/03/07 10:01:14;;;;;;;17.30;9.30;;;;;;;-0.04;51.30;98004.56;5020186;28;20104;-65
2022/03/07 10:03:48;;;;;;;12.35;8.45;;;;;;;0.14;50.93;98003.53;5021160;28;20073;-64
2022/03/07 10:06:19;;;;;;;13.60;8.82;;;;;;;0.40;50.59;98010.47;5030230;28;20103;-65
2022/03/07 10:08:58;;;;;;;11.60;7.03;;;;;;;0.55;49.62;98013.28;5037235;28;20045;-65
2022/03/07 10:11:28;;;;;;;13.77;7.57;;;;;;;0.78;48.84;98016.03;5023356;28;20045;-67
2022/03/07 10:13:58;;;;;;;13.82;8.07;;;;;;;0.76;47.52;98015.34;5018045;28;20397;-65
2022/03/07 10:16:41;;;;;;;16.85;7.97;;;;;;;0.67;49.03;98019.91;5010997;28;20471;-64
2022/03/07 10:19:13;;;;;;;16.33;8.95;;;;;;;0.28;49.67;98018.81;5023665;28;20045;-61
2022/03/07 10:21:50;;;;;;;;;;;;;;;0.07;50.21;98022.84;5012502;28;20404;-60
2022/03/07 10:24:18;;;;;;;13.40;7.72;;;;;;;0.12;50.21;98022.34;5011756;28;20015;-62
2022/03/07 10:26:44;;;;;;;13.30;7.85;;;;;;;0.58;48.05;98015.56;5013527;28;20045;-61
2022/03/07 10:29:11;;;;;;;14.85;8.32;;;;;;;0.72;46.13;98017.53;5023750;28;20046;-62
2022/03/07 10:31:59;;;;;;;16.85;10.23;;;;;;;0.50;46.37;98022.59;5029265;28;20059;-61
2022/03/07 10:34:26;;;;;;;14.65;8.30;;;;;;;0.54;46.16;98024.91;5019552;28;20049;-61
2022/03/07 10:36:54;;;;;;;14.13;9.13;;;;;;;0.38;46.74;98016.78;5028157;28;20045;-59
2022/03/07 10:39:25;;;;;;;13.80;8.73;;;;;;;0.79;46.29;98015.00;5023395;28;20045;-62
2022/03/07 10:41:53;;;;;;;14.13;7.72;;;;;;;0.94;46.40;98016.94;5032718;28;20042;-63
2022/03/07 10:44:27;;;;;;;14.63;8.27;;;;;;;1.25;46.28;98014.28;5035090;28;20041;-63
2022/03/07 10:47:18;;;;;;;13.55;8.23;;;;;;;1.41;45.31;98023.19;5023334;28;20041;-64
2022/03/07 10:49:51;;;;;;;14.75;7.78;;;;;;;1.12;46.31;98017.53;5034568;28;20049;-62
2022/03/07 10:52:19;;;;;;;11.48;7.75;;;;;;;1.04;45.79;98010.38;5035217;28;20045;-60
2022/03/07 10:54:49;;;;;;;16.42;8.57;;;;;;;1.20;46.00;98007.78;5024997;28;20068;-60
2022/03/07 10:57:21;;;;;;;14.13;8.30;;;;;;;1.08;45.57;98005.53;5035091;28;20080;-63
2022/03/07 10:59:47;;;;;;;12.75;7.60;;;;;;;1.22;44.56;98009.28;5027774;28;20059;-62
2022/03/07 11:02:16;;;;;;;13.13;9.30;;;;;;;1.24;45.16;98006.44;5044791;28;20044;-62
2022/03/07 11:04:48;;;;;;;13.20;7.30;;;;;;;1.35;45.10;98005.19;5025226;28;20038;-51
2022/03/07 11:07:15;;;;;;;10.73;7.38;;;;;;;1.59;45.34;97992.72;5022372;28;20525;-52
2022/03/07 11:09:42;;;;;;;16.08;9.88;;;;;;;1.61;44.54;97996.00;5023316;28;20053;-50
2022/03/07 11:12:11;;;;;;;13.30;8.35;;;;;;;1.58;44.65;97991.06;5025633;28;20042;-49
2022/03/07 11:14:42;;;;;;;15.40;9.35;;;;;;;1.40;45.09;97998.34;5023532;28;20046;-49
2022/03/07 11:17:15;;;;;;;14.57;9.88;;;;;;;1.15;45.87;97993.16;5023056;28;20112;-49
2022/03/07 11:19:42;;;;;;;16.17;10.30;;;;;;;1.38;45.34;97981.69;5023554;28;20045;-50
2022/03/07 11:22:10;;;;;;;16.60;8.25;;;;;;;1.47;45.08;97992.31;5022982;28;20041;-64
2022/03/07 11:24:39;;;;;;;14.55;9.50;;;;;;;1.31;45.10;97994.06;5044261;28;20088;-61
2022/03/07 11:27:06;;;;;;;14.57;9.05;;;;;;;1.55;44.92;97985.03;5036364;28;20071;-61
2022/03/07 11:29:35;;;;;;;14.50;9.00;;;;;;;1.56;44.67;97978.69;5036442;28;20053;-61